Time;durP1;ratioP1;P1;durP2;ratioP2;P2;SDS_P1;SDS_P2;PMS_P1;PMS_P2;Temp;Humidity;BMP_temperature;BMP_pressure;BME280_temperature;BME280_humidity;BME280_pressure;Samples;Min_cycle;Max_cycle;Signal;HPM_P1;HPM_P2
2023/06/10 00:02:05;;;;;;;11.57;10.65;;;;;;;;;;5057760;28;20021;-18
2023/06/10 00:04:32;;;;;;;11.43;10.52;;;;;;;;;;5040105;28;20183;-21
2023/06/10 00:06:58;;;;;;;10.73;9.13;;;;;;;;;;5057450;28;20096;-17
2023/06/10 00:09:24;;;;;;;8.98;8.27;;;;;;;;;;5057432;28;20021;-19
2023/06/10 00:11:50;;;;;;;9.27;8.32;;;;;;;;;;5057535;28;20488;-25
2023/06/10 00:14:16;;;;;;;9.80;9.07;;;;;;;;;;5057542;28;20032;-20
2023/06/10 00:16:44;;;;;;;9.65;8.70;;;;;;;;;;5057499;28;20338;-21
2023/06/10 00:19:13;;;;;;;11.10;9.15;;;;;;;;;;5057269;28;20025;-18
2023/06/10 00:21:40;;;;;;;15.57;8.98;;;;;;;;;;5057132;28;20468;-22
2023/06/10 00:24:07;;;;;;;11.43;10.43;;;;;;;;;;5057084;28;20033;-18
2023/06/10 00:26:33;;;;;;;8.85;8.13;;;;;;;;;;5057103;28;20097;-18
2023/06/10 00:29:00;;;;;;;11.38;10.18;;;;;;;;;;5057043;28;20021;-19
2023/06/10 00:31:30;;;;;;;9.70;8.90;;;;;;;;;;5057009;28;20029;-21
2023/06/10 00:33:56;;;;;;;9.68;8.45;;;;;;;;;;5056962;28;20099;-20
2023/06/10 00:36:22;;;;;;;9.80;9.02;;;;;;;;;;5056935;28;20355;-20
2023/06/10 00:38:48;;;;;;;9.25;7.95;;;;;;;;;;5057034;28;20032;-19
2023/06/10 00:41:15;;;;;;;10.15;9.27;;;;;;;;;;5057369;28;20051;-17
2023/06/10 00:43:41;;;;;;;11.05;9.77;;;;;;;;;;5056742;28;20508;-19
2023/06/10 00:46:07;;;;;;;9.35;8.63;;;;;;;;;;5056700;28;20037;-19
2023/06/10 00:48:33;;;;;;;9.38;8.70;;;;;;;;;;5039122;28;20457;-23
2023/06/10 00:51:00;;;;;;;10.27;9.25;;;;;;;;;;5056572;28;20031;-20
2023/06/10 00:53:26;;;;;;;10.40;9.48;;;;;;;;;;5056548;28;20049;-20
2023/06/10 00:55:53;;;;;;;9.07;8.38;;;;;;;;;;5056535;28;20063;-21
2023/06/10 00:58:19;;;;;;;8.38;7.68;;;;;;;;;;5056147;28;20021;-20
2023/06/10 01:00:46;;;;;;;11.55;9.10;;;;;;;;;;5056440;28;20052;-22
2023/06/10 01:03:13;;;;;;;8.60;7.85;;;;;;;;;;5056314;28;20356;-19
2023/06/10 01:05:41;;;;;;;8.55;7.85;;;;;;;;;;5056352;28;20021;-19
2023/06/10 01:08:10;;;;;;;8.30;7.57;;;;;;;;;;5056575;28;20028;-20
2023/06/10 01:10:40;;;;;;;9.10;8.35;;;;;;;;;;5056548;28;20029;-19
2023/06/10 01:13:14;;;;;;;9.32;8.50;;;;;;;;;;5056917;28;20029;-22
2023/06/10 01:15:40;;;;;;;11.10;9.05;;;;;;;;;;5056761;28;20025;-20
2023/06/10 01:18:14;;;;;;;8.98;8.38;;;;;;;;;;5056307;28;20492;-21
2023/06/10 01:20:42;;;;;;;9.18;8.40;;;;;;;;;;5056416;28;20031;-21
2023/06/10 01:23:09;;;;;;;10.13;9.15;;;;;;;;;;5055901;28;20025;-20
2023/06/10 01:25:38;;;;;;;9.63;8.82;;;;;;;;;;5038407;28;20337;-21
2023/06/10 01:28:10;;;;;;;9.13;8.52;;;;;;;;;;5055850;28;20105;-22
2023/06/10 01:30:41;;;;;;;8.88;8.13;;;;;;;;;;5055900;28;20053;-19
2023/06/10 01:33:07;;;;;;;;;;;;;;;;;;5056390;28;20128;-23
2023/06/10 01:35:34;;;;;;;9.02;8.15;;;;;;;;;;5055745;28;19924;-21
2023/06/10 01:38:01;;;;;;;11.23;8.13;;;;;;;;;;5055642;28;20025;-19
2023/06/10 01:40:28;;;;;;;10.50;9.20;;;;;;;;;;5055717;28;20021;-22
2023/06/10 01:42:54;;;;;;;9.35;8.50;;;;;;;;;;5055554;28;20033;-20
2023/06/10 01:45:21;;;;;;;11.50;10.30;;;;;;;;;;5055644;28;20078;-18
2023/06/10 01:47:47;;;;;;;11.50;9.57;;;;;;;;;;5055565;28;20448;-20
2023/06/10 01:50:13;;;;;;;9.20;8.60;;;;;;;;;;5055786;28;20089;-18
2023/06/10 01:52:39;;;;;;;8.55;7.95;;;;;;;;;;5055692;28;20095;-18
2023/06/10 01:55:05;;;;;;;9.02;8.32;;;;;;;;;;5055704;28;20036;-21
2023/06/10 01:57:31;;;;;;;10.40;9.45;;;;;;;;;;5055292;28;20064;-20
2023/06/10 01:59:57;;;;;;;9.27;8.57;;;;;;;;;;5055838;28;20473;-21
2023/06/10 02:02:24;;;;;;;9.45;8.60;;;;;;;;;;5055261;28;20035;-21
2023/06/10 02:04:51;;;;;;;10.00;9.10;;;;;;;;;;5055538;28;20072;-18
2023/06/10 02:07:18;;;;;;;13.70;9.05;;;;;;;;;;5055483;28;20029;-19
2023/06/10 02:09:44;;;;;;;10.43;9.52;;;;;;;;;;5055057;28;20028;-18
2023/06/10 02:12:11;;;;;;;9.75;8.77;;;;;;;;;;5055312;28;20029;-19
2023/06/10 02:14:37;;;;;;;9.90;8.95;;;;;;;;;;5055338;28;20104;-19
2023/06/10 02:17:04;;;;;;;10.25;9.30;;;;;;;;;;5054949;28;20112;-17
2023/06/10 02:19:30;;;;;;;10.40;9.35;;;;;;;;;;5055251;28;20406;-18
2023/06/10 02:21:56;;;;;;;9.93;9.02;;;;;;;;;;5055139;28;20050;-20
2023/06/10 02:24:23;;;;;;;9.25;8.32;;;;;;;;;;5055406;28;20345;-20
2023/06/10 02:26:50;;;;;;;10.85;9.95;;;;;;;;;;5054853;28;20025;-20
2023/06/10 02:29:16;;;;;;;9.80;9.00;;;;;;;;;;5054723;28;20021;-22
2023/06/10 02:31:42;;;;;;;9.85;9.02;;;;;;;;;;5054804;28;20111;-20
2023/06/10 02:34:08;;;;;;;9.55;8.63;;;;;;;;;;5054638;28;20472;-20
2023/06/10 02:36:35;;;;;;;9.30;8.63;;;;;;;;;;5054906;28;20029;-19
2023/06/10 02:39:02;;;;;;;9.55;8.85;;;;;;;;;;5054944;28;20345;-18
2023/06/10 02:41:29;;;;;;;9.68;8.88;;;;;;;;;;5054670;28;20074;-19
2023/06/10 02:43:55;;;;;;;10.05;9.20;;;;;;;;;;5054596;28;20048;-18
2023/06/10 02:46:21;;;;;;;9.25;8.65;;;;;;;;;;5054611;28;20091;-20
2023/06/10 02:48:49;;;;;;;9.13;8.27;;;;;;;;;;5054591;28;20024;-23
2023/06/10 02:51:15;;;;;;;9.75;9.05;;;;;;;;;;5054838;28;20033;-23
2023/06/10 02:53:41;;;;;;;8.73;8.10;;;;;;;;;;5054492;28;20367;-23
2023/06/10 02:56:07;;;;;;;9.77;8.98;;;;;;;;;;5054523;28;20063;-21
2023/06/10 02:58:33;;;;;;;10.43;9.23;;;;;;;;;;5054449;28;20029;-18
2023/06/10 03:00:59;;;;;;;11.02;9.30;;;;;;;;;;5054738;28;20032;-19
2023/06/10 03:03:27;;;;;;;9.68;8.88;;;;;;;;;;5054278;28;20438;-18
2023/06/10 03:05:53;;;;;;;9.82;9.02;;;;;;;;;;5054747;28;20021;-26
2023/06/10 03:08:19;;;;;;;9.70;9.00;;;;;;;;;;5054332;28;20036;-18
2023/06/10 03:10:46;;;;;;;9.52;8.82;;;;;;;;;;5054632;28;20033;-18
2023/06/10 03:13:12;;;;;;;9.85;8.95;;;;;;;;;;5054283;28;20336;-20
2023/06/10 03:15:40;;;;;;;9.00;8.20;;;;;;;;;;5054658;28;20408;-20
2023/06/10 03:18:07;;;;;;;10.27;9.30;;;;;;;;;;5054186;28;20036;-19
2023/06/10 03:20:36;;;;;;;9.88;9.00;;;;;;;;;;5056327;28;20021;-17
2023/06/10 03:23:03;;;;;;;9.65;8.88;;;;;;;;;;5058227;28;20017;-21
2023/06/10 03:25:30;;;;;;;9.38;8.57;;;;;;;;;;5058526;28;20025;-18
2023/06/10 03:27:56;;;;;;;9.85;8.95;;;;;;;;;;5058195;28;20028;-22
2023/06/10 03:30:22;;;;;;;9.48;8.77;;;;;;;;;;5058409;28;20056;-20
2023/06/10 03:32:49;;;;;;;10.10;9.10;;;;;;;;;;5058329;28;20027;-19
2023/06/10 03:35:15;;;;;;;9.70;9.00;;;;;;;;;;5058072;28;20060;-18
2023/06/10 03:37:41;;;;;;;9.45;8.65;;;;;;;;;;5057930;28;20116;-23
2023/06/10 03:40:08;;;;;;;9.43;8.68;;;;;;;;;;5058229;28;20029;-21
2023/06/10 03:42:35;;;;;;;9.80;9.02;;;;;;;;;;5058157;28;20440;-21
2023/06/10 03:45:01;;;;;;;10.85;8.63;;;;;;;;;;5057874;28;20017;-21
2023/06/10 03:47:27;;;;;;;9.13;8.32;;;;;;;;;;5058122;28;20025;-20
2023/06/10 03:49:53;;;;;;;9.57;8.88;;;;;;;;;;5057819;28;20033;-22
2023/06/10 03:52:19;;;;;;;9.50;8.68;;;;;;;;;;5057647;28;20025;-19
2023/06/10 03:54:45;;;;;;;9.32;8.57;;;;;;;;;;5057718;28;20037;-18
2023/06/10 03:57:12;;;;;;;8.65;8.02;;;;;;;;;;5057816;28;20352;-17
2023/06/10 03:59:38;;;;;;;8.50;7.90;;;;;;;;;;5057629;28;20405;-19
2023/06/10 04:02:04;;;;;;;9.82;9.05;;;;;;;;;;5057759;28;20398;-19
2023/06/10 04:04:30;;;;;;;9.35;8.55;;;;;;;;;;5057361;28;20383;-25
2023/06/10 04:06:57;;;;;;;8.82;8.13;;;;;;;;;;5057748;28;20029;-21
2023/06/10 04:09:23;;;;;;;10.05;9.15;;;;;;;;;;5057724;28;20155;-20
2023/06/10 04:11:49;;;;;;;9.05;8.07;;;;;;;;;;5057614;28;20033;-21
2023/06/10 04:14:15;;;;;;;8.77;8.00;;;;;;;;;;5057579;28;20360;-20
2023/06/10 04:16:42;;;;;;;9.57;8.88;;;;;;;;;;5057218;28;20025;-17
2023/06/10 04:19:09;;;;;;;9.27;8.57;;;;;;;;;;5057227;28;20021;-18
2023/06/10 04:21:35;;;;;;;8.43;7.82;;;;;;;;;;5057232;28;20025;-23
2023/06/10 04:24:02;;;;;;;9.52;8.65;;;;;;;;;;5057014;28;20049;-21
2023/06/10 04:26:28;;;;;;;8.63;7.82;;;;;;;;;;5057401;28;20029;-20
2023/06/10 04:28:54;;;;;;;9.25;8.55;;;;;;;;;;5057098;28;20044;-19
2023/06/10 04:31:20;;;;;;;8.88;8.20;;;;;;;;;;5056394;28;20063;-19
2023/06/10 04:33:46;;;;;;;8.73;8.10;;;;;;;;;;5057156;28;20108;-20
2023/06/10 04:36:14;;;;;;;9.50;8.68;;;;;;;;;;5057194;28;20397;-18
2023/06/10 04:38:41;;;;;;;9.30;8.60;;;;;;;;;;5056815;28;20452;-19
2023/06/10 04:41:07;;;;;;;9.05;8.32;;;;;;;;;;5056837;28;20079;-19
2023/06/10 04:43:33;;;;;;;8.40;7.78;;;;;;;;;;5056837;28;20082;-20
2023/06/10 04:45:59;;;;;;;15.20;8.70;;;;;;;;;;5057866;28;20036;-20
2023/06/10 04:48:26;;;;;;;9.13;8.43;;;;;;;;;;5056704;28;20024;-20
2023/06/10 04:50:52;;;;;;;9.80;8.65;;;;;;;;;;5056936;28;20025;-20
2023/06/10 04:53:18;;;;;;;9.18;8.27;;;;;;;;;;5038918;28;20025;-20
2023/06/10 04:55:44;;;;;;;9.35;8.50;;;;;;;;;;5056610;28;20040;-20
2023/06/10 04:58:10;;;;;;;9.35;8.70;;;;;;;;;;5056716;28;20040;-18
2023/06/10 05:00:36;;;;;;;9.13;8.27;;;;;;;;;;5056764;28;20021;-18
2023/06/10 05:03:03;;;;;;;8.82;8.18;;;;;;;;;;5056381;28;20391;-19
2023/06/10 05:05:29;;;;;;;9.68;8.98;;;;;;;;;;5056452;28;20029;-19
2023/06/10 05:07:55;;;;;;;9.57;8.77;;;;;;;;;;5056375;28;20063;-21
2023/06/10 05:10:21;;;;;;;8.90;8.30;;;;;;;;;;5056599;28;20024;-21
2023/06/10 05:12:47;;;;;;;9.25;8.45;;;;;;;;;;5056188;28;20090;-20
2023/06/10 05:15:13;;;;;;;9.20;8.50;;;;;;;;;;5056516;28;20039;-17
2023/06/10 05:17:39;;;;;;;8.98;8.30;;;;;;;;;;5056102;28;20037;-19
2023/06/10 05:20:06;;;;;;;8.88;8.18;;;;;;;;;;5056037;28;20059;-25
2023/06/10 05:22:32;;;;;;;9.07;8.43;;;;;;;;;;5055968;28;20523;-21
2023/06/10 05:24:58;;;;;;;9.25;8.55;;;;;;;;;;5056044;28;20096;-19
2023/06/10 05:27:25;;;;;;;8.90;8.20;;;;;;;;;;5056015;28;20021;-21
2023/06/10 05:29:51;;;;;;;9.23;8.38;;;;;;;;;;5056231;28;20027;-18
2023/06/10 05:32:17;;;;;;;9.57;8.88;;;;;;;;;;5055830;28;20387;-19
2023/06/10 05:34:44;;;;;;;8.63;8.02;;;;;;;;;;5055858;28;20029;-17
2023/06/10 05:37:10;;;;;;;9.27;8.57;;;;;;;;;;5055734;28;20036;-20
2023/06/10 05:39:39;;;;;;;9.32;8.60;;;;;;;;;;5055777;28;20025;-20
2023/06/10 05:42:07;;;;;;;9.07;8.40;;;;;;;;;;5055857;28;20460;-19
2023/06/10 05:44:33;;;;;;;9.38;8.60;;;;;;;;;;5054682;28;20028;-22
2023/06/10 05:46:59;;;;;;;9.48;8.77;;;;;;;;;;5055863;28;20082;-21
2023/06/10 05:49:25;;;;;;;8.95;8.27;;;;;;;;;;5056131;28;20313;-20
2023/06/10 05:51:52;;;;;;;9.30;8.38;;;;;;;;;;5055468;28;20397;-22
2023/06/10 05:54:19;;;;;;;10.10;9.20;;;;;;;;;;5055385;28;20024;-19
2023/06/10 05:56:45;;;;;;;8.95;8.10;;;;;;;;;;5055562;28;20029;-18
2023/06/10 05:59:11;;;;;;;9.20;8.50;;;;;;;;;;5055346;28;20055;-18
2023/06/10 06:01:37;;;;;;;9.07;8.15;;;;;;;;;;5055378;28;20347;-18
2023/06/10 06:04:03;;;;;;;8.43;7.78;;;;;;;;;;5055032;28;20045;-26
2023/06/10 06:06:29;;;;;;;9.35;8.60;;;;;;;;;;5055213;28;20507;-21
2023/06/10 06:08:56;;;;;;;8.13;7.47;;;;;;;;;;5055200;28;20029;-20
2023/06/10 06:11:22;;;;;;;9.63;8.68;;;;;;;;;;5055045;28;20104;-18
2023/06/10 06:13:48;;;;;;;9.57;8.88;;;;;;;;;;5055281;28;20025;-22
2023/06/10 06:16:15;;;;;;;8.57;7.97;;;;;;;;;;5054985;28;20039;-22
2023/06/10 06:18:41;;;;;;;8.55;7.95;;;;;;;;;;5054876;28;20024;-24
2023/06/10 06:21:07;;;;;;;8.80;8.10;;;;;;;;;;5055152;28;20419;-19
2023/06/10 06:23:33;;;;;;;9.07;8.35;;;;;;;;;;5054869;28;20029;-20
2023/06/10 06:25:59;;;;;;;8.52;7.78;;;;;;;;;;5055155;28;20164;-20
2023/06/10 06:28:28;;;;;;;8.85;8.15;;;;;;;;;;5054813;28;20119;-18
2023/06/10 06:30:55;;;;;;;8.35;7.75;;;;;;;;;;5054845;28;20028;-22
2023/06/10 06:33:21;;;;;;;9.07;8.48;;;;;;;;;;5054726;28;20032;-20
2023/06/10 06:35:47;;;;;;;8.43;7.82;;;;;;;;;;5054810;28;20031;-21
2023/06/10 06:38:14;;;;;;;9.23;8.50;;;;;;;;;;5054900;28;20357;-23
2023/06/10 06:40:40;;;;;;;8.85;8.15;;;;;;;;;;5054983;28;20412;-17
2023/06/10 06:43:06;;;;;;;9.13;8.43;;;;;;;;;;5054871;28;20333;-19
2023/06/10 06:45:33;;;;;;;8.82;8.23;;;;;;;;;;5054645;28;20056;-23
2023/06/10 06:48:00;;;;;;;8.07;7.57;;;;;;;;;;5054512;28;20033;-24
2023/06/10 06:50:26;;;;;;;7.93;7.15;;;;;;;;;;5054617;28;20503;-22
2023/06/10 06:52:52;;;;;;;9.18;8.32;;;;;;;;;;5054705;28;20033;-19
2023/06/10 06:55:18;;;;;;;8.68;7.90;;;;;;;;;;5054461;28;20021;-21
2023/06/10 06:57:44;;;;;;;9.40;8.60;;;;;;;;;;5054657;28;20029;-19
2023/06/10 07:00:11;;;;;;;8.27;7.63;;;;;;;;;;5054747;28;20028;-19
2023/06/10 07:02:37;;;;;;;9.15;8.45;;;;;;;;;;5037051;28;20045;-19
2023/06/10 07:05:03;;;;;;;9.05;8.35;;;;;;;;;;5054959;28;20344;-18
2023/06/10 07:07:29;;;;;;;9.27;8.55;;;;;;;;;;5054661;28;20086;-23
2023/06/10 07:09:56;;;;;;;7.93;7.22;;;;;;;;;;5054640;28;20036;-21
2023/06/10 07:12:23;;;;;;;8.68;7.95;;;;;;;;;;5037102;28;20021;-18
2023/06/10 07:14:50;;;;;;;8.05;7.55;;;;;;;;;;5054565;28;20044;-20
2023/06/10 07:17:17;;;;;;;9.63;8.93;;;;;;;;;;5054180;28;20025;-21
2023/06/10 07:19:44;;;;;;;8.55;7.95;;;;;;;;;;5054221;28;20025;-21
2023/06/10 07:22:10;;;;;;;9.13;8.38;;;;;;;;;;5054196;28;20116;-22
2023/06/10 07:24:36;;;;;;;10.43;9.63;;;;;;;;;;5054274;28;20076;-18
2023/06/10 07:27:02;;;;;;;8.80;8.20;;;;;;;;;;5054206;28;20491;-19
2023/06/10 07:29:28;;;;;;;8.73;8.07;;;;;;;;;;5054696;28;20059;-18
2023/06/10 07:31:54;;;;;;;8.00;7.50;;;;;;;;;;5054101;28;20063;-22
2023/06/10 07:34:21;;;;;;;8.32;7.72;;;;;;;;;;5054425;28;20029;-21
2023/06/10 07:36:47;;;;;;;9.23;8.52;;;;;;;;;;5054089;28;20025;-21
2023/06/10 07:39:13;;;;;;;9.55;8.93;;;;;;;;;;5054111;28;20395;-19
2023/06/10 07:41:39;;;;;;;8.07;7.47;;;;;;;;;;5054610;28;20391;-17
2023/06/10 07:44:05;;;;;;;8.80;8.20;;;;;;;;;;5053939;28;20085;-19
2023/06/10 07:46:31;;;;;;;8.30;7.78;;;;;;;;;;5054052;28;20028;-18
2023/06/10 07:48:57;;;;;;;8.50;7.90;;;;;;;;;;5054001;28;20033;-20
2023/06/10 07:51:23;;;;;;;8.50;7.90;;;;;;;;;;5053981;28;20025;-23
2023/06/10 07:53:50;;;;;;;8.98;8.18;;;;;;;;;;5053917;28;20025;-23
2023/06/10 07:56:16;;;;;;;8.73;8.00;;;;;;;;;;5054211;28;20504;-21
2023/06/10 07:58:42;;;;;;;8.50;7.90;;;;;;;;;;5053843;28;20040;-19
2023/06/10 08:01:08;;;;;;;8.77;8.10;;;;;;;;;;5054405;28;20116;-19
2023/06/10 08:03:35;;;;;;;9.75;8.88;;;;;;;;;;5053672;28;20047;-19
2023/06/10 08:06:01;;;;;;;9.73;8.88;;;;;;;;;;5053869;28;20029;-22
2023/06/10 08:08:27;;;;;;;9.32;8.60;;;;;;;;;;5057250;28;20040;-23
2023/06/10 08:10:53;;;;;;;9.00;8.30;;;;;;;;;;5057452;28;20036;-21
2023/06/10 08:13:19;;;;;;;9.07;8.38;;;;;;;;;;5057255;28;20447;-20
2023/06/10 08:15:47;;;;;;;9.35;8.70;;;;;;;;;;5057353;28;20051;-19
2023/06/10 08:18:13;;;;;;;9.13;8.45;;;;;;;;;;5057181;28;20533;-19
2023/06/10 08:20:40;;;;;;;9.18;8.48;;;;;;;;;;5057271;28;20033;-19
2023/06/10 08:23:06;;;;;;;10.00;9.20;;;;;;;;;;5057165;28;20079;-21
2023/06/10 08:25:32;;;;;;;9.30;8.50;;;;;;;;;;5057750;28;20064;-18
2023/06/10 08:27:58;;;;;;;9.20;8.50;;;;;;;;;;5057108;28;20063;-19
2023/06/10 08:30:24;;;;;;;9.48;8.65;;;;;;;;;;5057417;28;20408;-20
2023/06/10 08:32:51;;;;;;;9.23;8.52;;;;;;;;;;5056952;28;20108;-21
2023/06/10 08:35:18;;;;;;;8.50;7.78;;;;;;;;;;5057347;28;20025;-26
2023/06/10 08:37:44;;;;;;;8.82;8.15;;;;;;;;;;5056883;28;20033;-20
2023/06/10 08:40:10;;;;;;;9.20;8.40;;;;;;;;;;5057161;28;20108;-24
2023/06/10 08:42:49;;;;;;;9.57;8.82;;;;;;;;;;5056813;28;20025;-21
2023/06/10 08:45:18;;;;;;;8.93;8.32;;;;;;;;;;5057110;28;20104;-21
2023/06/10 08:47:48;;;;;;;8.57;7.97;;;;;;;;;;5057014;28;20024;-17
2023/06/10 08:50:17;;;;;;;9.32;8.63;;;;;;;;;;5057028;28;20025;-22
2023/06/10 08:52:44;;;;;;;8.60;7.97;;;;;;;;;;5056555;28;20091;-21
2023/06/10 08:55:12;;;;;;;9.43;8.73;;;;;;;;;;5056656;28;20025;-19
2023/06/10 08:57:38;;;;;;;9.07;8.48;;;;;;;;;;5057269;28;20017;-20
2023/06/10 09:00:05;;;;;;;9.10;8.50;;;;;;;;;;5039732;28;20404;-19
2023/06/10 09:02:32;;;;;;;8.88;8.27;;;;;;;;;;5056634;28;20102;-19
2023/06/10 09:04:58;;;;;;;9.93;9.23;;;;;;;;;;5056994;28;20360;-18
2023/06/10 09:07:25;;;;;;;8.93;8.32;;;;;;;;;;5056410;28;20029;-18
2023/06/10 09:09:53;;;;;;;9.07;8.38;;;;;;;;;;5056312;28;20060;-18
2023/06/10 09:12:19;;;;;;;9.20;8.48;;;;;;;;;;5056512;28;20428;-19
2023/06/10 09:14:46;;;;;;;10.35;9.50;;;;;;;;;;5056230;28;20033;-18
2023/06/10 09:17:12;;;;;;;8.95;8.25;;;;;;;;;;5056130;28;20021;-19
2023/06/10 09:19:39;;;;;;;8.20;7.53;;;;;;;;;;5056009;28;20025;-21
2023/06/10 09:22:05;;;;;;;9.25;8.65;;;;;;;;;;5056002;28;20130;-19
2023/06/10 09:24:31;;;;;;;9.90;8.35;;;;;;;;;;5056617;28;20429;-21
2023/06/10 09:27:06;;;;;;;8.50;7.90;;;;;;;;;;5056243;28;20409;-22
2023/06/10 09:29:32;;;;;;;9.07;8.40;;;;;;;;;;5056250;28;20025;-20
2023/06/10 09:31:58;;;;;;;10.70;9.85;;;;;;;;;;5038362;28;20032;-19
2023/06/10 09:34:26;;;;;;;9.23;8.60;;;;;;;;;;5056117;28;20036;-20
2023/06/10 09:36:53;;;;;;;9.63;8.93;;;;;;;;;;5055989;28;20025;-23
2023/06/10 09:39:20;;;;;;;7.50;7.00;;;;;;;;;;5055744;28;20031;-21
2023/06/10 09:41:47;;;;;;;7.70;7.13;;;;;;;;;;5056031;28;20056;-22
2023/06/10 09:44:17;;;;;;;9.27;8.57;;;;;;;;;;5055614;28;20040;-22
2023/06/10 09:46:45;;;;;;;9.43;8.80;;;;;;;;;;5055964;28;20049;-19
2023/06/10 09:49:11;;;;;;;7.80;7.30;;;;;;;;;;5055593;28;20033;-21
2023/06/10 09:51:37;;;;;;;9.50;8.85;;;;;;;;;;5055555;28;20029;-20
2023/06/10 09:54:04;;;;;;;9.48;8.88;;;;;;;;;;5055417;28;20036;-19
2023/06/10 09:56:34;;;;;;;9.52;8.73;;;;;;;;;;5055483;28;20029;-21
2023/06/10 09:59:00;;;;;;;8.63;7.95;;;;;;;;;;5055364;28;20071;-19
2023/06/10 10:01:26;;;;;;;8.55;7.90;;;;;;;;;;5055917;28;20025;-18
2023/06/10 10:03:53;;;;;;;7.28;6.78;;;;;;;;;;5055052;28;20048;-21
2023/06/10 10:06:20;;;;;;;7.85;7.30;;;;;;;;;;5055262;28;20021;-19
2023/06/10 10:08:47;;;;;;;8.02;7.38;;;;;;;;;;5037644;28;20029;-21
2023/06/10 10:11:15;;;;;;;8.55;7.95;;;;;;;;;;5055702;28;20344;-22
2023/06/10 10:13:41;;;;;;;10.60;9.80;;;;;;;;;;5055082;28;20025;-18
2023/06/10 10:16:12;;;;;;;8.25;7.65;;;;;;;;;;5055152;28;20055;-20
2023/06/10 10:18:40;;;;;;;6.93;6.47;;;;;;;;;;5055037;28;20036;-24
2023/06/10 10:21:07;;;;;;;7.55;6.95;;;;;;;;;;5055038;28;20110;-18
2023/06/10 10:23:39;;;;;;;7.80;7.30;;;;;;;;;;5054911;28;20096;-18
2023/06/10 10:26:07;;;;;;;7.53;7.03;;;;;;;;;;5055250;28;20100;-18
2023/06/10 10:28:42;;;;;;;8.25;7.72;;;;;;;;;;5055161;28;20071;-19
2023/06/10 10:31:12;;;;;;;10.45;9.65;;;;;;;;;;5054600;28;20032;-20
2023/06/10 10:33:46;;;;;;;11.15;10.35;;;;;;;;;;5054674;28;20025;-21
2023/06/10 10:36:13;;;;;;;10.00;9.30;;;;;;;;;;5055349;28;20028;-20
2023/06/10 10:38:39;;;;;;;11.02;10.32;;;;;;;;;;5054662;28;20060;-20
2023/06/10 10:41:05;;;;;;;9.77;9.00;;;;;;;;;;5054988;28;20028;-18
2023/06/10 10:43:32;;;;;;;8.30;7.72;;;;;;;;;;5054616;28;20021;-21
2023/06/10 10:45:59;;;;;;;8.32;7.72;;;;;;;;;;5054916;28;20422;-22
2023/06/10 10:48:29;;;;;;;9.52;8.82;;;;;;;;;;5054633;28;20039;-19
2023/06/10 10:50:58;;;;;;;10.32;9.52;;;;;;;;;;5054850;28;20422;-18
2023/06/10 10:53:28;;;;;;;10.35;9.45;;;;;;;;;;5054583;28;20032;-20
2023/06/10 10:56:01;;;;;;;10.65;9.95;;;;;;;;;;5054518;28;20414;-18
2023/06/10 10:58:27;;;;;;;10.60;9.77;;;;;;;;;;5036859;28;20466;-20
2023/06/10 11:00:53;;;;;;;10.20;9.50;;;;;;;;;;5054728;28;20026;-19
2023/06/10 11:03:19;;;;;;;11.02;10.13;;;;;;;;;;5054169;28;20041;-19
2023/06/10 11:05:49;;;;;;;9.35;8.65;;;;;;;;;;5054356;28;20111;-21
2023/06/10 11:08:35;;;;;;;11.60;10.80;;;;;;;;;;5054925;28;20584;-22
2023/06/10 11:11:01;;;;;;;10.35;9.65;;;;;;;;;;5041447;28;20442;-19
2023/06/10 11:13:28;;;;;;;10.32;9.63;;;;;;;;;;5054557;28;20025;-18
2023/06/10 11:15:58;;;;;;;10.30;9.60;;;;;;;;;;5054325;28;20363;-21
2023/06/10 11:18:25;;;;;;;10.15;9.45;;;;;;;;;;5054210;28;20029;-18
2023/06/10 11:20:52;;;;;;;10.02;9.27;;;;;;;;;;5054525;28;20040;-20
2023/06/10 11:23:27;;;;;;;10.43;9.60;;;;;;;;;;5036688;28;20053;-21
2023/06/10 11:26:12;;;;;;;10.77;9.88;;;;;;;;;;5054268;28;20029;-20
2023/06/10 11:28:39;;;;;;;10.10;9.40;;;;;;;;;;5054244;28;20032;-17
2023/06/10 11:31:05;;;;;;;10.38;9.68;;;;;;;;;;5054405;28;20455;-22
2023/06/10 11:33:32;;;;;;;10.43;9.65;;;;;;;;;;5054066;28;20039;-21
2023/06/10 11:35:58;;;;;;;11.13;10.23;;;;;;;;;;5054112;28;20040;-20
2023/06/10 11:38:25;;;;;;;10.70;9.90;;;;;;;;;;5054033;28;20033;-21
2023/06/10 11:40:52;;;;;;;11.57;10.77;;;;;;;;;;5054637;28;20025;-23
2023/06/10 11:43:19;;;;;;;11.43;10.55;;;;;;;;;;5057033;28;20036;-23
2023/06/10 11:45:45;;;;;;;8.68;8.07;;;;;;;;;;5057866;28;20029;-18
2023/06/10 11:48:11;;;;;;;9.07;8.48;;;;;;;;;;5057875;28;20025;-22
2023/06/10 11:50:37;;;;;;;11.95;11.05;;;;;;;;;;5058358;28;20021;-22
2023/06/10 11:53:04;;;;;;;12.40;11.50;;;;;;;;;;5057721;28;20096;-21
2023/06/10 11:55:43;;;;;;;12.90;11.98;;;;;;;;;;5057793;28;20025;-21
2023/06/10 11:58:16;;;;;;;10.90;10.20;;;;;;;;;;5058147;28;20039;-24
2023/06/10 12:00:49;;;;;;;11.88;11.07;;;;;;;;;;5058202;28;20025;-20
2023/06/10 12:03:15;;;;;;;11.35;10.60;;;;;;;;;;5057358;28;20044;-20
2023/06/10 12:05:54;;;;;;;10.73;9.93;;;;;;;;;;5057865;28;20024;-21
2023/06/10 12:08:20;;;;;;;10.10;9.40;;;;;;;;;;5057818;28;20384;-18
2023/06/10 12:10:46;;;;;;;10.73;9.95;;;;;;;;;;5057534;28;20325;-18
2023/06/10 12:13:12;;;;;;;11.52;10.63;;;;;;;;;;5057641;28;20355;-20
2023/06/10 12:15:39;;;;;;;12.20;11.02;;;;;;;;;;5057346;28;20444;-21
2023/06/10 12:18:05;;;;;;;12.50;11.50;;;;;;;;;;5057579;28;20033;-21
2023/06/10 12:20:33;;;;;;;11.15;10.43;;;;;;;;;;5057261;28;20332;-20
2023/06/10 12:22:59;;;;;;;11.80;10.90;;;;;;;;;;5057115;28;20056;-21
2023/06/10 12:25:26;;;;;;;12.63;11.63;;;;;;;;;;5057161;28;20024;-24
2023/06/10 12:27:53;;;;;;;11.70;10.85;;;;;;;;;;5057166;28;20032;-21
2023/06/10 12:30:21;;;;;;;10.73;9.82;;;;;;;;;;5057392;28;20028;-18
2023/06/10 12:32:47;;;;;;;10.88;10.02;;;;;;;;;;5057546;28;20020;-18
2023/06/10 12:35:26;;;;;;;12.25;11.10;;;;;;;;;;5057067;28;20103;-18
2023/06/10 12:38:03;;;;;;;11.23;10.35;;;;;;;;;;5056892;28;20036;-23
2023/06/10 12:40:31;;;;;;;11.10;10.38;;;;;;;;;;5057176;28;20368;-21
2023/06/10 12:42:57;;;;;;;11.80;10.90;;;;;;;;;;5056670;28;20112;-22
2023/06/10 12:45:30;;;;;;;11.57;10.77;;;;;;;;;;5056974;28;20029;-21
2023/06/10 12:48:12;;;;;;;11.38;10.57;;;;;;;;;;5056725;28;20029;-21
2023/06/10 12:50:43;;;;;;;11.15;10.35;;;;;;;;;;5056683;28;20032;-19
2023/06/10 12:53:11;;;;;;;11.18;10.57;;;;;;;;;;5055994;28;20033;-21
2023/06/10 12:55:37;;;;;;;12.57;11.68;;;;;;;;;;5056547;28;20037;-18
2023/06/10 12:58:03;;;;;;;12.65;11.75;;;;;;;;;;5056494;28;20032;-21
2023/06/10 13:00:30;;;;;;;11.77;10.90;;;;;;;;;;5056577;28;20464;-22
2023/06/10 13:03:00;;;;;;;11.93;11.02;;;;;;;;;;5056205;28;20055;-20
2023/06/10 13:05:27;;;;;;;10.65;9.85;;;;;;;;;;5057259;28;20052;-19
2023/06/10 13:07:53;;;;;;;11.90;11.05;;;;;;;;;;5056424;28;20370;-18
2023/06/10 13:10:20;;;;;;;12.65;11.77;;;;;;;;;;5056292;28;20032;-19
2023/06/10 13:12:46;;;;;;;11.65;10.73;;;;;;;;;;5056474;28;20036;-17
2023/06/10 13:15:13;;;;;;;11.23;10.32;;;;;;;;;;5056704;28;20029;-20
2023/06/10 13:17:39;;;;;;;12.75;11.80;;;;;;;;;;5056086;28;20340;-19
2023/06/10 13:20:06;;;;;;;13.38;12.32;;;;;;;;;;5056391;28;20095;-18
2023/06/10 13:22:34;;;;;;;12.13;11.32;;;;;;;;;;5055965;28;20029;-20
2023/06/10 13:25:00;;;;;;;10.88;10.18;;;;;;;;;;5056020;28;20053;-18
2023/06/10 13:27:27;;;;;;;11.40;10.60;;;;;;;;;;5056280;28;20389;-18
2023/06/10 13:29:53;;;;;;;12.70;11.80;;;;;;;;;;5055948;28;20055;-22
2023/06/10 13:32:20;;;;;;;11.48;10.75;;;;;;;;;;5055748;28;20029;-22
2023/06/10 13:34:46;;;;;;;11.73;10.93;;;;;;;;;;5055782;28;20028;-24
2023/06/10 13:37:17;;;;;;;11.55;10.65;;;;;;;;;;5055946;28;20043;-21
2023/06/10 13:39:43;;;;;;;;;;;;;;;;;;5056216;28;20029;-18
2023/06/10 13:42:09;;;;;;;11.77;10.88;;;;;;;;;;5055955;28;19940;-18
2023/06/10 13:44:36;;;;;;;12.20;11.32;;;;;;;;;;5055962;28;20017;-19
2023/06/10 13:47:05;;;;;;;12.00;11.15;;;;;;;;;;5055606;28;20032;-21
2023/06/10 13:49:31;;;;;;;11.18;10.35;;;;;;;;;;5055859;28;20028;-21
2023/06/10 13:51:57;;;;;;;13.80;12.80;;;;;;;;;;5055498;28;20086;-21
2023/06/10 13:54:23;;;;;;;11.13;10.32;;;;;;;;;;5055504;28;20021;-18
2023/06/10 13:56:50;;;;;;;11.27;10.48;;;;;;;;;;5055735;28;20433;-20
2023/06/10 13:59:16;;;;;;;11.82;11.02;;;;;;;;;;5055356;28;20486;-24
2023/06/10 14:01:42;;;;;;;10.85;10.05;;;;;;;;;;5055668;28;20042;-23
2023/06/10 14:04:10;;;;;;;11.15;10.35;;;;;;;;;;5054325;28;20045;-21
2023/06/10 14:06:36;;;;;;;12.52;11.63;;;;;;;;;;5037527;28;20071;-24
2023/06/10 14:09:02;;;;;;;11.13;10.32;;;;;;;;;;5055267;28;20352;-20
2023/06/10 14:11:28;;;;;;;11.48;10.57;;;;;;;;;;5037887;28;20588;-21
2023/06/10 14:13:58;;;;;;;11.13;10.32;;;;;;;;;;5055347;28;20414;-19
2023/06/10 14:16:24;;;;;;;12.20;11.38;;;;;;;;;;5055018;28;20025;-21
2023/06/10 14:18:51;;;;;;;13.50;12.48;;;;;;;;;;5055035;28;20033;-20
2023/06/10 14:21:17;;;;;;;12.50;11.65;;;;;;;;;;5055267;28;20029;-22
2023/06/10 14:23:44;;;;;;;12.05;11.25;;;;;;;;;;5055198;28;20491;-19
2023/06/10 14:26:10;;;;;;;12.65;11.65;;;;;;;;;;5055176;28;20077;-18
2023/06/10 14:28:36;;;;;;;11.82;10.85;;;;;;;;;;5054862;28;20036;-22
2023/06/10 14:31:03;;;;;;;11.57;10.77;;;;;;;;;;5055154;28;20036;-20
2023/06/10 14:33:30;;;;;;;11.27;10.48;;;;;;;;;;5055024;28;20108;-18
2023/06/10 14:35:57;;;;;;;11.57;10.77;;;;;;;;;;5054686;28;20112;-20